sensor_id;sensor_type;location;lat;lon;timestamp;P1;durP1;ratioP1;P2;durP2;ratioP2
2610;SDS011;5612;51.134;17.058;2023-05-10T00:01:54;7.63;;;6.93;;
2610;SDS011;5612;51.134;17.058;2023-05-10T00:04:26;7.80;;;6.83;;
2610;SDS011;5612;51.134;17.058;2023-05-10T00:06:55;8.30;;;7.60;;
2610;SDS011;5612;51.134;17.058;2023-05-10T00:09:25;6.90;;;6.30;;
2610;SDS011;5612;51.134;17.058;2023-05-10T00:11:55;7.60;;;6.90;;
2610;SDS011;5612;51.134;17.058;2023-05-10T00:14:26;7.30;;;6.70;;
2610;SDS011;5612;51.134;17.058;2023-05-10T00:16:55;7.53;;;6.83;;
2610;SDS011;5612;51.134;17.058;2023-05-10T00:19:27;7.87;;;7.13;;
2610;SDS011;5612;51.134;17.058;2023-05-10T00:21:57;7.90;;;7.20;;
2610;SDS011;5612;51.134;17.058;2023-05-10T00:24:26;8.00;;;7.30;;
2610;SDS011;5612;51.134;17.058;2023-05-10T00:26:56;10.17;;;8.30;;
2610;SDS011;5612;51.134;17.058;2023-05-10T00:29:25;7.37;;;6.57;;
2610;SDS011;5612;51.134;17.058;2023-05-10T00:31:55;7.40;;;6.70;;
2610;SDS011;5612;51.134;17.058;2023-05-10T00:34:27;7.70;;;6.90;;
2610;SDS011;5612;51.134;17.058;2023-05-10T00:36:57;7.23;;;6.53;;
2610;SDS011;5612;51.134;17.058;2023-05-10T00:39:27;8.53;;;6.77;;
2610;SDS011;5612;51.134;17.058;2023-05-10T00:41:57;8.03;;;6.67;;
2610;SDS011;5612;51.134;17.058;2023-05-10T00:44:27;7.93;;;7.13;;
2610;SDS011;5612;51.134;17.058;2023-05-10T00:46:58;6.60;;;6.00;;
2610;SDS011;5612;51.134;17.058;2023-05-10T00:49:30;8.27;;;7.57;;
2610;SDS011;5612;51.134;17.058;2023-05-10T00:52:00;8.30;;;7.60;;
2610;SDS011;5612;51.134;17.058;2023-05-10T00:54:31;9.47;;;7.90;;
2610;SDS011;5612;51.134;17.058;2023-05-10T00:57:01;7.00;;;6.27;;
2610;SDS011;5612;51.134;17.058;2023-05-10T00:59:31;6.70;;;6.10;;
2610;SDS011;5612;51.134;17.058;2023-05-10T01:02:02;8.37;;;7.47;;
2610;SDS011;5612;51.134;17.058;2023-05-10T01:04:33;8.80;;;8.00;;
2610;SDS011;5612;51.134;17.058;2023-05-10T01:07:05;8.37;;;7.57;;
2610;SDS011;5612;51.134;17.058;2023-05-10T01:09:34;8.10;;;7.30;;
2610;SDS011;5612;51.134;17.058;2023-05-10T01:12:05;7.57;;;6.87;;
2610;SDS011;5612;51.134;17.058;2023-05-10T01:14:35;7.37;;;6.80;;
2610;SDS011;5612;51.134;17.058;2023-05-10T01:17:05;7.87;;;7.10;;
2610;SDS011;5612;51.134;17.058;2023-05-10T01:19:38;8.53;;;7.63;;
2610;SDS011;5612;51.134;17.058;2023-05-10T01:22:12;9.00;;;7.83;;
2610;SDS011;5612;51.134;17.058;2023-05-10T01:24:59;7.63;;;7.00;;
2610;SDS011;5612;51.134;17.058;2023-05-10T01:27:45;7.90;;;7.20;;
2610;SDS011;5612;51.134;17.058;2023-05-10T01:30:35;13.30;;;7.57;;
2610;SDS011;5612;51.134;17.058;2023-05-10T01:33:25;8.33;;;7.53;;
2610;SDS011;5612;51.134;17.058;2023-05-10T01:36:00;9.20;;;8.30;;
2610;SDS011;5612;51.134;17.058;2023-05-10T01:38:37;9.83;;;8.50;;
2610;SDS011;5612;51.134;17.058;2023-05-10T01:41:13;8.17;;;7.33;;
2610;SDS011;5612;51.134;17.058;2023-05-10T01:43:48;11.10;;;8.00;;
2610;SDS011;5612;51.134;17.058;2023-05-10T01:46:26;8.83;;;7.63;;
2610;SDS011;5612;51.134;17.058;2023-05-10T01:49:01;9.67;;;7.90;;
2610;SDS011;5612;51.134;17.058;2023-05-10T01:51:36;8.03;;;7.43;;
2610;SDS011;5612;51.134;17.058;2023-05-10T01:54:09;9.20;;;8.27;;
2610;SDS011;5612;51.134;17.058;2023-05-10T01:56:42;12.30;;;7.77;;
2610;SDS011;5612;51.134;17.058;2023-05-10T01:59:15;8.20;;;7.40;;
2610;SDS011;5612;51.134;17.058;2023-05-10T02:01:48;8.37;;;7.67;;
2610;SDS011;5612;51.134;17.058;2023-05-10T02:04:21;8.50;;;7.67;;
2610;SDS011;5612;51.134;17.058;2023-05-10T02:06:52;8.20;;;7.43;;
2610;SDS011;5612;51.134;17.058;2023-05-10T02:09:23;8.27;;;7.23;;
2610;SDS011;5612;51.134;17.058;2023-05-10T02:11:55;8.47;;;7.67;;
2610;SDS011;5612;51.134;17.058;2023-05-10T02:14:28;8.73;;;7.93;;
2610;SDS011;5612;51.134;17.058;2023-05-10T02:16:59;8.40;;;7.63;;
2610;SDS011;5612;51.134;17.058;2023-05-10T02:19:32;8.00;;;6.90;;
2610;SDS011;5612;51.134;17.058;2023-05-10T02:22:04;8.60;;;7.80;;
2610;SDS011;5612;51.134;17.058;2023-05-10T02:24:35;8.80;;;7.90;;
2610;SDS011;5612;51.134;17.058;2023-05-10T02:27:07;11.10;;;7.17;;
2610;SDS011;5612;51.134;17.058;2023-05-10T02:29:38;12.73;;;8.93;;
2610;SDS011;5612;51.134;17.058;2023-05-10T02:32:08;8.20;;;7.60;;
2610;SDS011;5612;51.134;17.058;2023-05-10T02:34:42;8.63;;;7.83;;
2610;SDS011;5612;51.134;17.058;2023-05-10T02:37:12;8.33;;;7.40;;
2610;SDS011;5612;51.134;17.058;2023-05-10T02:39:45;25.60;;;7.63;;
2610;SDS011;5612;51.134;17.058;2023-05-10T02:42:16;8.80;;;7.87;;
2610;SDS011;5612;51.134;17.058;2023-05-10T02:44:48;7.97;;;7.17;;
2610;SDS011;5612;51.134;17.058;2023-05-10T02:47:21;8.73;;;7.83;;
2610;SDS011;5612;51.134;17.058;2023-05-10T02:49:52;8.83;;;7.80;;
2610;SDS011;5612;51.134;17.058;2023-05-10T02:52:23;11.17;;;8.83;;
2610;SDS011;5612;51.134;17.058;2023-05-10T02:54:55;9.00;;;8.10;;
2610;SDS011;5612;51.134;17.058;2023-05-10T02:57:28;11.43;;;7.90;;
2610;SDS011;5612;51.134;17.058;2023-05-10T03:00:01;9.97;;;8.67;;
2610;SDS011;5612;51.134;17.058;2023-05-10T03:02:31;11.13;;;8.40;;
2610;SDS011;5612;51.134;17.058;2023-05-10T03:05:02;11.27;;;8.40;;
2610;SDS011;5612;51.134;17.058;2023-05-10T03:07:32;10.20;;;8.10;;
2610;SDS011;5612;51.134;17.058;2023-05-10T03:10:02;9.50;;;8.60;;
2610;SDS011;5612;51.134;17.058;2023-05-10T03:12:37;9.43;;;8.43;;
2610;SDS011;5612;51.134;17.058;2023-05-10T03:15:17;9.20;;;8.17;;
2610;SDS011;5612;51.134;17.058;2023-05-10T03:17:55;9.63;;;8.60;;
2610;SDS011;5612;51.134;17.058;2023-05-10T03:20:35;10.27;;;9.27;;
2610;SDS011;5612;51.134;17.058;2023-05-10T03:23:11;8.20;;;7.47;;
2610;SDS011;5612;51.134;17.058;2023-05-10T03:25:49;9.57;;;8.77;;
2610;SDS011;5612;51.134;17.058;2023-05-10T03:28:20;9.77;;;8.77;;
2610;SDS011;5612;51.134;17.058;2023-05-10T03:30:50;9.73;;;7.83;;
2610;SDS011;5612;51.134;17.058;2023-05-10T03:33:22;10.20;;;8.90;;
2610;SDS011;5612;51.134;17.058;2023-05-10T03:35:53;8.60;;;7.80;;
2610;SDS011;5612;51.134;17.058;2023-05-10T03:38:23;11.17;;;8.83;;
2610;SDS011;5612;51.134;17.058;2023-05-10T03:40:55;8.43;;;7.63;;
2610;SDS011;5612;51.134;17.058;2023-05-10T03:43:25;9.00;;;8.07;;
2610;SDS011;5612;51.134;17.058;2023-05-10T03:45:55;9.17;;;8.27;;
2610;SDS011;5612;51.134;17.058;2023-05-10T03:48:24;11.07;;;8.27;;
2610;SDS011;5612;51.134;17.058;2023-05-10T03:50:55;8.40;;;7.20;;
2610;SDS011;5612;51.134;17.058;2023-05-10T03:53:25;8.70;;;7.90;;
2610;SDS011;5612;51.134;17.058;2023-05-10T03:55:54;7.80;;;7.00;;
2610;SDS011;5612;51.134;17.058;2023-05-10T03:58:24;11.83;;;8.30;;
2610;SDS011;5612;51.134;17.058;2023-05-10T04:00:53;9.00;;;8.07;;
2610;SDS011;5612;51.134;17.058;2023-05-10T04:03:23;9.43;;;8.37;;
2610;SDS011;5612;51.134;17.058;2023-05-10T04:06:00;8.23;;;7.30;;
2610;SDS011;5612;51.134;17.058;2023-05-10T04:08:30;9.57;;;7.03;;
2610;SDS011;5612;51.134;17.058;2023-05-10T04:11:06;7.57;;;6.77;;
2610;SDS011;5612;51.134;17.058;2023-05-10T04:13:36;8.73;;;6.80;;
2610;SDS011;5612;51.134;17.058;2023-05-10T04:16:05;9.23;;;7.73;;
2610;SDS011;5612;51.134;17.058;2023-05-10T04:18:35;7.23;;;6.57;;
2610;SDS011;5612;51.134;17.058;2023-05-10T04:21:10;15.20;;;7.27;;
2610;SDS011;5612;51.134;17.058;2023-05-10T04:23:40;10.33;;;8.53;;
2610;SDS011;5612;51.134;17.058;2023-05-10T04:26:10;7.97;;;7.17;;
2610;SDS011;5612;51.134;17.058;2023-05-10T04:28:40;7.47;;;6.77;;
2610;SDS011;5612;51.134;17.058;2023-05-10T04:31:09;7.43;;;6.57;;
2610;SDS011;5612;51.134;17.058;2023-05-10T04:33:39;7.70;;;7.00;;
2610;SDS011;5612;51.134;17.058;2023-05-10T04:36:11;8.00;;;6.80;;
2610;SDS011;5612;51.134;17.058;2023-05-10T04:38:40;9.27;;;7.83;;
2610;SDS011;5612;51.134;17.058;2023-05-10T04:41:10;8.80;;;8.00;;
2610;SDS011;5612;51.134;17.058;2023-05-10T04:43:40;7.57;;;6.83;;
2610;SDS011;5612;51.134;17.058;2023-05-10T04:46:09;8.07;;;7.30;;
2610;SDS011;5612;51.134;17.058;2023-05-10T04:48:39;8.30;;;6.00;;
2610;SDS011;5612;51.134;17.058;2023-05-10T04:51:09;9.10;;;7.30;;
2610;SDS011;5612;51.134;17.058;2023-05-10T04:53:40;7.60;;;6.70;;
2610;SDS011;5612;51.134;17.058;2023-05-10T04:56:23;6.87;;;6.20;;
2610;SDS011;5612;51.134;17.058;2023-05-10T04:58:52;9.07;;;6.90;;
2610;SDS011;5612;51.134;17.058;2023-05-10T05:01:22;8.53;;;6.10;;
2610;SDS011;5612;51.134;17.058;2023-05-10T05:03:52;7.50;;;6.80;;
2610;SDS011;5612;51.134;17.058;2023-05-10T05:06:23;7.43;;;6.73;;
2610;SDS011;5612;51.134;17.058;2023-05-10T05:08:54;9.90;;;5.70;;
2610;SDS011;5612;51.134;17.058;2023-05-10T05:11:24;7.93;;;6.37;;
2610;SDS011;5612;51.134;17.058;2023-05-10T05:13:54;7.90;;;6.37;;
2610;SDS011;5612;51.134;17.058;2023-05-10T05:16:23;7.70;;;7.03;;
2610;SDS011;5612;51.134;17.058;2023-05-10T05:18:53;6.93;;;6.23;;
2610;SDS011;5612;51.134;17.058;2023-05-10T05:21:25;7.27;;;6.67;;
2610;SDS011;5612;51.134;17.058;2023-05-10T05:23:54;7.60;;;6.90;;
2610;SDS011;5612;51.134;17.058;2023-05-10T05:26:23;6.63;;;5.87;;
2610;SDS011;5612;51.134;17.058;2023-05-10T05:28:53;7.00;;;6.30;;
2610;SDS011;5612;51.134;17.058;2023-05-10T05:31:22;6.50;;;5.90;;
2610;SDS011;5612;51.134;17.058;2023-05-10T05:33:52;7.97;;;7.33;;
2610;SDS011;5612;51.134;17.058;2023-05-10T05:36:21;7.20;;;6.50;;
2610;SDS011;5612;51.134;17.058;2023-05-10T05:38:52;6.90;;;6.20;;
2610;SDS011;5612;51.134;17.058;2023-05-10T05:41:22;7.03;;;5.33;;
2610;SDS011;5612;51.134;17.058;2023-05-10T05:43:52;10.07;;;7.30;;
2610;SDS011;5612;51.134;17.058;2023-05-10T05:46:24;7.50;;;6.90;;
2610;SDS011;5612;51.134;17.058;2023-05-10T05:48:53;6.67;;;6.07;;
2610;SDS011;5612;51.134;17.058;2023-05-10T05:51:23;6.80;;;6.13;;
2610;SDS011;5612;51.134;17.058;2023-05-10T05:53:54;7.93;;;7.20;;
2610;SDS011;5612;51.134;17.058;2023-05-10T05:56:26;6.60;;;5.90;;
2610;SDS011;5612;51.134;17.058;2023-05-10T05:58:55;7.77;;;6.30;;
2610;SDS011;5612;51.134;17.058;2023-05-10T06:01:25;7.47;;;6.87;;
2610;SDS011;5612;51.134;17.058;2023-05-10T06:03:54;7.60;;;6.60;;
2610;SDS011;5612;51.134;17.058;2023-05-10T06:06:27;6.50;;;5.90;;
2610;SDS011;5612;51.134;17.058;2023-05-10T06:08:59;6.80;;;6.20;;
2610;SDS011;5612;51.134;17.058;2023-05-10T06:11:30;6.13;;;5.63;;
2610;SDS011;5612;51.134;17.058;2023-05-10T06:14:00;9.40;;;6.43;;
2610;SDS011;5612;51.134;17.058;2023-05-10T06:16:31;7.30;;;6.60;;
2610;SDS011;5612;51.134;17.058;2023-05-10T06:19:01;7.73;;;5.37;;
2610;SDS011;5612;51.134;17.058;2023-05-10T06:21:34;6.50;;;6.00;;
2610;SDS011;5612;51.134;17.058;2023-05-10T06:24:06;7.73;;;6.80;;
2610;SDS011;5612;51.134;17.058;2023-05-10T06:26:36;6.73;;;5.97;;
2610;SDS011;5612;51.134;17.058;2023-05-10T06:29:06;8.20;;;6.70;;
2610;SDS011;5612;51.134;17.058;2023-05-10T06:31:37;6.50;;;5.50;;
2610;SDS011;5612;51.134;17.058;2023-05-10T06:34:06;7.43;;;5.70;;
2610;SDS011;5612;51.134;17.058;2023-05-10T06:36:36;6.07;;;5.57;;
2610;SDS011;5612;51.134;17.058;2023-05-10T06:39:07;7.30;;;5.77;;
2610;SDS011;5612;51.134;17.058;2023-05-10T06:41:38;6.50;;;4.73;;
2610;SDS011;5612;51.134;17.058;2023-05-10T06:44:08;5.80;;;5.20;;
2610;SDS011;5612;51.134;17.058;2023-05-10T06:46:37;5.80;;;5.40;;
2610;SDS011;5612;51.134;17.058;2023-05-10T06:49:07;5.57;;;4.97;;
2610;SDS011;5612;51.134;17.058;2023-05-10T06:51:37;14.30;;;5.97;;
2610;SDS011;5612;51.134;17.058;2023-05-10T06:54:09;6.17;;;5.00;;
2610;SDS011;5612;51.134;17.058;2023-05-10T06:56:39;4.90;;;4.40;;
2610;SDS011;5612;51.134;17.058;2023-05-10T06:59:10;5.80;;;5.20;;
2610;SDS011;5612;51.134;17.058;2023-05-10T07:01:41;6.10;;;4.70;;
2610;SDS011;5612;51.134;17.058;2023-05-10T07:04:11;6.67;;;4.50;;
2610;SDS011;5612;51.134;17.058;2023-05-10T07:06:40;5.37;;;4.87;;
2610;SDS011;5612;51.134;17.058;2023-05-10T07:09:11;5.60;;;4.60;;
2610;SDS011;5612;51.134;17.058;2023-05-10T07:11:42;4.87;;;4.37;;
2610;SDS011;5612;51.134;17.058;2023-05-10T07:14:15;5.60;;;5.10;;
2610;SDS011;5612;51.134;17.058;2023-05-10T07:16:46;6.87;;;4.73;;
2610;SDS011;5612;51.134;17.058;2023-05-10T07:19:15;5.20;;;4.70;;
2610;SDS011;5612;51.134;17.058;2023-05-10T07:21:46;6.17;;;4.73;;
2610;SDS011;5612;51.134;17.058;2023-05-10T07:24:19;10.80;;;5.90;;
2610;SDS011;5612;51.134;17.058;2023-05-10T07:26:54;5.40;;;5.00;;
2610;SDS011;5612;51.134;17.058;2023-05-10T07:29:23;5.63;;;5.23;;
2610;SDS011;5612;51.134;17.058;2023-05-10T07:31:53;4.57;;;4.13;;
2610;SDS011;5612;51.134;17.058;2023-05-10T07:34:25;3.97;;;3.57;;
2610;SDS011;5612;51.134;17.058;2023-05-10T07:36:55;4.67;;;4.27;;
2610;SDS011;5612;51.134;17.058;2023-05-10T07:39:27;4.60;;;3.90;;
2610;SDS011;5612;51.134;17.058;2023-05-10T07:41:57;4.67;;;4.37;;
2610;SDS011;5612;51.134;17.058;2023-05-10T07:44:26;9.20;;;4.27;;
2610;SDS011;5612;51.134;17.058;2023-05-10T07:46:56;11.17;;;4.43;;
2610;SDS011;5612;51.134;17.058;2023-05-10T07:49:26;5.10;;;4.57;;
2610;SDS011;5612;51.134;17.058;2023-05-10T07:51:56;4.00;;;3.70;;
2610;SDS011;5612;51.134;17.058;2023-05-10T07:54:27;5.13;;;4.70;;
2610;SDS011;5612;51.134;17.058;2023-05-10T07:56:56;6.10;;;4.70;;
2610;SDS011;5612;51.134;17.058;2023-05-10T07:59:27;7.33;;;4.30;;
2610;SDS011;5612;51.134;17.058;2023-05-10T08:01:56;5.87;;;5.30;;
2610;SDS011;5612;51.134;17.058;2023-05-10T08:04:26;4.80;;;3.80;;
2610;SDS011;5612;51.134;17.058;2023-05-10T08:06:55;5.17;;;4.67;;
2610;SDS011;5612;51.134;17.058;2023-05-10T08:09:24;4.93;;;4.40;;
2610;SDS011;5612;51.134;17.058;2023-05-10T08:11:55;4.03;;;3.73;;
2610;SDS011;5612;51.134;17.058;2023-05-10T08:14:27;5.23;;;4.40;;
2610;SDS011;5612;51.134;17.058;2023-05-10T08:16:58;4.13;;;3.83;;
2610;SDS011;5612;51.134;17.058;2023-05-10T08:19:26;4.80;;;4.40;;
2610;SDS011;5612;51.134;17.058;2023-05-10T08:21:55;4.83;;;4.43;;
2610;SDS011;5612;51.134;17.058;2023-05-10T08:24:24;7.27;;;5.07;;
2610;SDS011;5612;51.134;17.058;2023-05-10T08:30:28;3.90;;;3.60;;
2610;SDS011;5612;51.134;17.058;2023-05-10T08:32:57;4.57;;;3.83;;
2610;SDS011;5612;51.134;17.058;2023-05-10T08:35:26;3.80;;;3.50;;
2610;SDS011;5612;51.134;17.058;2023-05-10T08:37:55;4.60;;;4.20;;
2610;SDS011;5612;51.134;17.058;2023-05-10T08:40:24;4.30;;;3.90;;
2610;SDS011;5612;51.134;17.058;2023-05-10T08:42:55;4.00;;;3.80;;
2610;SDS011;5612;51.134;17.058;2023-05-10T08:45:32;5.53;;;3.17;;
2610;SDS011;5612;51.134;17.058;2023-05-10T08:48:07;3.90;;;3.50;;
2610;SDS011;5612;51.134;17.058;2023-05-10T08:50:38;3.40;;;3.20;;
2610;SDS011;5612;51.134;17.058;2023-05-10T08:53:09;2.60;;;2.50;;
2610;SDS011;5612;51.134;17.058;2023-05-10T08:55:38;3.53;;;3.33;;
2610;SDS011;5612;51.134;17.058;2023-05-10T08:58:09;3.43;;;3.13;;
2610;SDS011;5612;51.134;17.058;2023-05-10T09:00:40;2.77;;;2.60;;
2610;SDS011;5612;51.134;17.058;2023-05-10T09:03:09;2.90;;;2.70;;
2610;SDS011;5612;51.134;17.058;2023-05-10T09:05:38;3.97;;;3.67;;
2610;SDS011;5612;51.134;17.058;2023-05-10T09:08:08;3.28;;;3.03;;
2610;SDS011;5612;51.134;17.058;2023-05-10T09:10:38;3.17;;;2.97;;
2610;SDS011;5612;51.134;17.058;2023-05-10T09:13:08;3.33;;;3.13;;
2610;SDS011;5612;51.134;17.058;2023-05-10T09:15:38;3.00;;;2.80;;
2610;SDS011;5612;51.134;17.058;2023-05-10T09:18:08;4.40;;;4.10;;
2610;SDS011;5612;51.134;17.058;2023-05-10T09:20:37;2.77;;;2.60;;
2610;SDS011;5612;51.134;17.058;2023-05-10T09:23:07;3.75;;;3.33;;
2610;SDS011;5612;51.134;17.058;2023-05-10T09:25:36;3.45;;;3.25;;
2610;SDS011;5612;51.134;17.058;2023-05-10T09:28:06;3.50;;;3.30;;
2610;SDS011;5612;51.134;17.058;2023-05-10T09:30:36;3.33;;;3.13;;
2610;SDS011;5612;51.134;17.058;2023-05-10T09:33:07;3.28;;;2.97;;
2610;SDS011;5612;51.134;17.058;2023-05-10T09:35:36;3.42;;;2.92;;
2610;SDS011;5612;51.134;17.058;2023-05-10T09:38:07;3.00;;;2.80;;
2610;SDS011;5612;51.134;17.058;2023-05-10T09:40:37;3.00;;;2.85;;
2610;SDS011;5612;51.134;17.058;2023-05-10T09:43:07;4.03;;;3.72;;
2610;SDS011;5612;51.134;17.058;2023-05-10T09:45:37;2.90;;;2.70;;
2610;SDS011;5612;51.134;17.058;2023-05-10T09:48:07;3.78;;;3.40;;
2610;SDS011;5612;51.134;17.058;2023-05-10T09:50:36;3.07;;;2.87;;
2610;SDS011;5612;51.134;17.058;2023-05-10T09:53:05;3.08;;;2.88;;
2610;SDS011;5612;51.134;17.058;2023-05-10T09:55:43;3.80;;;3.37;;
2610;SDS011;5612;51.134;17.058;2023-05-10T09:58:13;3.73;;;3.17;;
2610;SDS011;5612;51.134;17.058;2023-05-10T10:00:43;2.88;;;2.67;;
2610;SDS011;5612;51.134;17.058;2023-05-10T10:03:16;3.53;;;3.28;;
2610;SDS011;5612;51.134;17.058;2023-05-10T10:05:49;3.50;;;3.20;;
2610;SDS011;5612;51.134;17.058;2023-05-10T10:08:19;3.50;;;3.25;;
2610;SDS011;5612;51.134;17.058;2023-05-10T10:10:48;6.55;;;3.88;;
2610;SDS011;5612;51.134;17.058;2023-05-10T10:13:17;3.55;;;3.08;;
2610;SDS011;5612;51.134;17.058;2023-05-10T10:15:46;3.13;;;2.92;;
2610;SDS011;5612;51.134;17.058;2023-05-10T10:18:19;3.17;;;2.97;;
2610;SDS011;5612;51.134;17.058;2023-05-10T10:20:53;2.90;;;2.70;;
2610;SDS011;5612;51.134;17.058;2023-05-10T10:23:23;2.83;;;2.72;;
2610;SDS011;5612;51.134;17.058;2023-05-10T10:25:52;3.17;;;2.97;;
2610;SDS011;5612;51.134;17.058;2023-05-10T10:28:24;3.33;;;2.22;;
2610;SDS011;5612;51.134;17.058;2023-05-10T10:31:15;5.53;;;2.65;;
2610;SDS011;5612;51.134;17.058;2023-05-10T10:34:03;2.95;;;2.75;;
2610;SDS011;5612;51.134;17.058;2023-05-10T10:36:39;3.20;;;2.90;;
2610;SDS011;5612;51.134;17.058;2023-05-10T10:39:10;3.28;;;3.08;;
2610;SDS011;5612;51.134;17.058;2023-05-10T10:41:39;3.30;;;3.00;;
2610;SDS011;5612;51.134;17.058;2023-05-10T10:44:23;2.80;;;2.60;;
2610;SDS011;5612;51.134;17.058;2023-05-10T10:47:00;6.85;;;3.17;;
2610;SDS011;5612;51.134;17.058;2023-05-10T10:49:37;3.35;;;2.90;;
2610;SDS011;5612;51.134;17.058;2023-05-10T10:52:13;3.55;;;2.47;;
2610;SDS011;5612;51.134;17.058;2023-05-10T10:54:47;4.28;;;3.22;;
2610;SDS011;5612;51.134;17.058;2023-05-10T10:57:19;16.98;;;3.33;;
2610;SDS011;5612;51.134;17.058;2023-05-10T10:59:49;2.97;;;2.78;;
2610;SDS011;5612;51.134;17.058;2023-05-10T11:02:33;2.55;;;2.35;;
2610;SDS011;5612;51.134;17.058;2023-05-10T11:05:25;3.45;;;3.15;;
2610;SDS011;5612;51.134;17.058;2023-05-10T11:08:18;2.80;;;2.60;;
2610;SDS011;5612;51.134;17.058;2023-05-10T11:10:52;2.67;;;2.50;;
2610;SDS011;5612;51.134;17.058;2023-05-10T11:13:34;3.17;;;2.72;;
2610;SDS011;5612;51.134;17.058;2023-05-10T11:16:13;3.40;;;3.10;;
2610;SDS011;5612;51.134;17.058;2023-05-10T11:18:52;3.55;;;2.67;;
2610;SDS011;5612;51.134;17.058;2023-05-10T11:21:23;3.10;;;2.90;;
2610;SDS011;5612;51.134;17.058;2023-05-10T11:23:53;2.90;;;2.75;;
2610;SDS011;5612;51.134;17.058;2023-05-10T11:26:24;3.00;;;2.80;;
2610;SDS011;5612;51.134;17.058;2023-05-10T11:28:54;2.55;;;2.35;;
2610;SDS011;5612;51.134;17.058;2023-05-10T11:31:25;2.85;;;2.30;;
2610;SDS011;5612;51.134;17.058;2023-05-10T11:33:54;4.05;;;2.60;;
2610;SDS011;5612;51.134;17.058;2023-05-10T11:36:25;2.40;;;2.20;;
2610;SDS011;5612;51.134;17.058;2023-05-10T11:38:56;3.05;;;2.75;;
2610;SDS011;5612;51.134;17.058;2023-05-10T11:41:26;3.60;;;2.53;;
2610;SDS011;5612;51.134;17.058;2023-05-10T11:43:56;2.40;;;2.30;;
2610;SDS011;5612;51.134;17.058;2023-05-10T11:46:26;2.78;;;2.58;;
2610;SDS011;5612;51.134;17.058;2023-05-10T11:48:58;2.15;;;2.05;;
2610;SDS011;5612;51.134;17.058;2023-05-10T11:51:34;2.97;;;2.72;;
2610;SDS011;5612;51.134;17.058;2023-05-10T11:54:05;2.97;;;2.77;;
2610;SDS011;5612;51.134;17.058;2023-05-10T11:56:36;3.30;;;2.80;;
2610;SDS011;5612;51.134;17.058;2023-05-10T11:59:05;2.70;;;2.53;;
2610;SDS011;5612;51.134;17.058;2023-05-10T12:01:34;3.00;;;2.80;;
2610;SDS011;5612;51.134;17.058;2023-05-10T12:04:03;2.50;;;2.40;;
2610;SDS011;5612;51.134;17.058;2023-05-10T12:06:36;3.20;;;2.73;;
2610;SDS011;5612;51.134;17.058;2023-05-10T12:09:09;2.43;;;2.30;;
2610;SDS011;5612;51.134;17.058;2023-05-10T12:11:40;2.43;;;2.33;;
2610;SDS011;5612;51.134;17.058;2023-05-10T12:14:10;2.57;;;2.37;;
2610;SDS011;5612;51.134;17.058;2023-05-10T12:16:41;2.30;;;2.00;;
2610;SDS011;5612;51.134;17.058;2023-05-10T12:19:18;7.93;;;3.00;;
2610;SDS011;5612;51.134;17.058;2023-05-10T12:21:50;5.37;;;2.70;;
2610;SDS011;5612;51.134;17.058;2023-05-10T12:24:24;2.60;;;2.40;;
2610;SDS011;5612;51.134;17.058;2023-05-10T12:26:54;2.70;;;2.50;;
2610;SDS011;5612;51.134;17.058;2023-05-10T12:29:42;1.87;;;1.77;;
2610;SDS011;5612;51.134;17.058;2023-05-10T12:32:12;2.70;;;2.50;;
2610;SDS011;5612;51.134;17.058;2023-05-10T12:34:41;2.90;;;2.63;;
2610;SDS011;5612;51.134;17.058;2023-05-10T12:37:11;2.43;;;2.30;;
2610;SDS011;5612;51.134;17.058;2023-05-10T12:39:40;2.47;;;2.27;;
2610;SDS011;5612;51.134;17.058;2023-05-10T12:42:10;2.80;;;2.60;;
2610;SDS011;5612;51.134;17.058;2023-05-10T12:44:39;2.90;;;2.70;;
2610;SDS011;5612;51.134;17.058;2023-05-10T12:47:08;2.13;;;2.03;;
2610;SDS011;5612;51.134;17.058;2023-05-10T12:49:37;5.43;;;2.57;;
2610;SDS011;5612;51.134;17.058;2023-05-10T12:52:06;2.47;;;2.37;;
2610;SDS011;5612;51.134;17.058;2023-05-10T12:54:36;4.60;;;2.60;;
2610;SDS011;5612;51.134;17.058;2023-05-10T12:57:05;2.90;;;2.53;;
2610;SDS011;5612;51.134;17.058;2023-05-10T12:59:34;2.53;;;2.33;;
2610;SDS011;5612;51.134;17.058;2023-05-10T13:02:03;4.67;;;3.50;;
2610;SDS011;5612;51.134;17.058;2023-05-10T13:04:32;18.30;;;14.73;;
2610;SDS011;5612;51.134;17.058;2023-05-10T13:07:02;2.30;;;2.20;;
2610;SDS011;5612;51.134;17.058;2023-05-10T13:09:30;2.40;;;2.20;;
2610;SDS011;5612;51.134;17.058;2023-05-10T13:12:01;3.50;;;2.13;;
2610;SDS011;5612;51.134;17.058;2023-05-10T13:14:34;2.63;;;2.43;;
2610;SDS011;5612;51.134;17.058;2023-05-10T13:17:03;1.90;;;1.80;;
2610;SDS011;5612;51.134;17.058;2023-05-10T13:19:32;2.60;;;2.50;;
2610;SDS011;5612;51.134;17.058;2023-05-10T13:22:02;2.60;;;2.10;;
2610;SDS011;5612;51.134;17.058;2023-05-10T13:24:32;2.30;;;2.20;;
2610;SDS011;5612;51.134;17.058;2023-05-10T13:27:11;2.33;;;2.10;;
2610;SDS011;5612;51.134;17.058;2023-05-10T13:29:58;2.13;;;2.03;;
2610;SDS011;5612;51.134;17.058;2023-05-10T13:32:28;2.13;;;2.03;;
2610;SDS011;5612;51.134;17.058;2023-05-10T13:34:57;2.90;;;2.30;;
2610;SDS011;5612;51.134;17.058;2023-05-10T13:37:27;3.43;;;2.03;;
2610;SDS011;5612;51.134;17.058;2023-05-10T13:39:56;1.83;;;1.73;;
2610;SDS011;5612;51.134;17.058;2023-05-10T13:42:26;2.40;;;2.30;;
2610;SDS011;5612;51.134;17.058;2023-05-10T13:44:56;1.97;;;1.87;;
2610;SDS011;5612;51.134;17.058;2023-05-10T13:47:29;2.90;;;2.70;;
2610;SDS011;5612;51.134;17.058;2023-05-10T13:50:12;2.03;;;1.83;;
2610;SDS011;5612;51.134;17.058;2023-05-10T13:52:40;2.00;;;1.90;;
2610;SDS011;5612;51.134;17.058;2023-05-10T13:55:12;2.47;;;2.17;;
2610;SDS011;5612;51.134;17.058;2023-05-10T13:57:46;2.00;;;1.90;;
2610;SDS011;5612;51.134;17.058;2023-05-10T14:00:16;8.30;;;2.20;;
2610;SDS011;5612;51.134;17.058;2023-05-10T14:02:45;2.57;;;2.40;;
2610;SDS011;5612;51.134;17.058;2023-05-10T14:05:15;2.30;;;1.93;;
2610;SDS011;5612;51.134;17.058;2023-05-10T14:07:51;4.50;;;2.20;;
2610;SDS011;5612;51.134;17.058;2023-05-10T14:10:20;2.20;;;2.00;;
2610;SDS011;5612;51.134;17.058;2023-05-10T14:12:51;3.43;;;2.00;;
2610;SDS011;5612;51.134;17.058;2023-05-10T14:15:20;2.13;;;1.90;;
2610;SDS011;5612;51.134;17.058;2023-05-10T14:17:48;2.87;;;2.03;;
2610;SDS011;5612;51.134;17.058;2023-05-10T14:20:17;2.10;;;1.97;;
2610;SDS011;5612;51.134;17.058;2023-05-10T14:22:46;2.03;;;1.80;;
2610;SDS011;5612;51.134;17.058;2023-05-10T14:25:15;2.07;;;1.90;;
2610;SDS011;5612;51.134;17.058;2023-05-10T14:27:45;2.00;;;1.70;;
2610;SDS011;5612;51.134;17.058;2023-05-10T14:30:18;1.93;;;1.83;;
2610;SDS011;5612;51.134;17.058;2023-05-10T14:32:47;2.10;;;2.00;;
2610;SDS011;5612;51.134;17.058;2023-05-10T14:35:16;2.03;;;1.93;;
2610;SDS011;5612;51.134;17.058;2023-05-10T14:37:46;2.23;;;2.00;;
2610;SDS011;5612;51.134;17.058;2023-05-10T14:40:15;2.27;;;2.07;;
2610;SDS011;5612;51.134;17.058;2023-05-10T14:42:45;1.90;;;1.80;;
2610;SDS011;5612;51.134;17.058;2023-05-10T14:45:14;1.90;;;1.80;;
2610;SDS011;5612;51.134;17.058;2023-05-10T14:47:45;2.80;;;1.80;;
2610;SDS011;5612;51.134;17.058;2023-05-10T14:50:13;2.87;;;1.80;;
2610;SDS011;5612;51.134;17.058;2023-05-10T14:53:01;3.13;;;1.70;;
2610;SDS011;5612;51.134;17.058;2023-05-10T14:55:30;1.60;;;1.60;;
2610;SDS011;5612;51.134;17.058;2023-05-10T14:57:59;2.00;;;1.90;;
2610;SDS011;5612;51.134;17.058;2023-05-10T15:00:28;2.33;;;1.90;;
2610;SDS011;5612;51.134;17.058;2023-05-10T15:03:00;2.63;;;1.80;;
2610;SDS011;5612;51.134;17.058;2023-05-10T15:05:30;2.40;;;2.07;;
2610;SDS011;5612;51.134;17.058;2023-05-10T15:07:59;2.63;;;2.03;;
2610;SDS011;5612;51.134;17.058;2023-05-10T15:10:28;2.77;;;2.03;;
2610;SDS011;5612;51.134;17.058;2023-05-10T15:12:59;2.37;;;2.17;;
2610;SDS011;5612;51.134;17.058;2023-05-10T15:15:28;2.33;;;2.13;;
2610;SDS011;5612;51.134;17.058;2023-05-10T15:17:57;2.00;;;1.90;;
2610;SDS011;5612;51.134;17.058;2023-05-10T15:20:27;1.80;;;1.70;;
2610;SDS011;5612;51.134;17.058;2023-05-10T15:22:56;4.07;;;2.20;;
2610;SDS011;5612;51.134;17.058;2023-05-10T15:25:25;2.20;;;2.00;;
2610;SDS011;5612;51.134;17.058;2023-05-10T15:27:55;2.30;;;2.10;;
2610;SDS011;5612;51.134;17.058;2023-05-10T15:30:23;2.17;;;1.67;;